Airfield :
LOGIN :

Register | Disclaimer

   EN    FR    IT 

 










Legend :    VFR   Marginal VFR   IFR   Intensive IFR   Very Intensive IFR
Visi :
Ceiling :
>= 8 km
>= 3000ft
5 to 8 km
1000 to 3000 ft
1500m to 5 km
500 to 1000 ft
800 to 1500m
200 to 500 ft
< 800m
< 200 ft
Symbols :   Thunderstorms  Fog  Heavy snow  Heavy precipitations  Wind > 20 kt
SIGMETs :     Misc.  Thunderstorms  Icing  Turbulence  Mountain Waves  Volcanic Ashes







- Airport Elevation : 1306 ft
- IATA code : ACH


LSZR - Alten Rhein

CURRENT METAR :
  • 231450Z 26005KT 9999 VCSH BKN050 09/06 Q1023 NOSIG RMK M

EXPIRED METARs :
  • 231420Z 26009KT 220V290 9999 4500SW -RA SCT034 BKN040 09/06 Q1023 RERA NOSIG RMK L
  • 231350Z 26009KT 220V290 9999 4500SW -RA SCT034 BKN040 09/06 Q1023 NOSIG RMK L
  • 231320Z 27009KT 9999 -RA FEW029 BKN036 BKN045 09/06 Q1023 NOSIG RMK K
  • 231250Z 26008KT 220V290 9999 -RA BKN034 09/05 Q1023 NOSIG RMK J
  • 231220Z 26008KT 220V290 9999 -RA BKN034 09/05 Q1023 NOSIG RMK J

TAF TAF LSZR
Valid from the 23 at 15:00 until the 24 at 00:00 UTC


231425Z 2315/2324 26009KT 9999 SCT035 BKN040
TEMPO 2315/2324 SHRA
ATIS : +41 71 858 51 66
No reported NOTAMs for that airfield.



MET'MAP, your aeronautical weather chart ! - Copyright ORBIFLY December 2007 - Disclaimer

ORBIFLY MET'MAP TEAM :

Programming & Development : Alexandra Zaïnal
Concept & Development : Baudouin d'Aumeries
Co-Development & Prog : Marc-Olivier Méhu
Technical & hardware support : Manuel Goepfert

Contact : metmap@orbifly.com




SOURCES & CREDITS :

   NOAA